Swift Current Airport, Saskatchewan

Past 24 Hour Conditions

Date / Time
(CST)
Conditions Temp
(°F)
Humidity
(%)
Dew Point
(°F)
Wind
(mph)
Pressure
(inches)
Vis
(mi)
Wind Chill
31 October 2014
1:00 Cloudy 32 91 30 SSE 32 gust 41 30.2 10 *
00:00 Cloudy 32 91 29 SSE 33 gust 41 30.3 9 16
30 October 2014
23:00 Cloudy 32 91 29 SSE 31 gust 41 30.3 10 17
22:00 Cloudy 32 91 29 SSE 30 gust 37 30.3 10 17
21:00 Cloudy 32 90 29 SE 24 gust 32 30.4 10 18
20:00 Cloudy 32 89 29 SSE 29 gust 40 30.4 10 18
19:00 Cloudy 33   90 30 SE 25 gust 32 30.4 10 *
18:00 Cloudy 32 90 30 SE 24 gust 30 30.4 10 *
17:00 Cloudy 32 91 30 SE 21 gust 30 30.4 10 *
16:00 Cloudy 32 91 30 SE 23 gust 31 30.4 10 19
15:00 Cloudy 32 90 29 SE 21 gust 28 30.4 10 19
14:00 Cloudy 32 88 29 SE 20 gust 26 30.5 10 20
13:00 Cloudy 31 91 29 SE 16 gust 23 30.5 10 20
12:00 Cloudy 31 93 29 ESE 15 gust 23 30.5 10 20
11:00 Cloudy 30   95 29 ESE 14 gust 24 30.5 10 20
10:00 Cloudy 30   97 29 ESE 11 gust 18 30.5 7 20
9:00 Mist 30   97 29 ESE 10 30.4 3 21
8:00 Mist 30   98 30 E 11 gust 18 30.4 5 21
7:00 Mist 31 98 30 ENE 7 30.4 3 24
6:00 Mist 31 97 30 ENE 9 30.4 3 23
5:00 Cloudy 31 96 30 NE 7 30.4 7 25
4:00 Mist 32 97 31 ENE 6 30.3 4 26
3:00 Mist 31 97 31 NE 6 30.3 4 26
2:00 Mist 31 96 30 NNE 6 30.3 5 26
1:00 Cloudy 31 96 30 NNE 7 30.2 7 24
N/A Not available
↑ Highest temperature
↓ Lowest temperature
* Value not significant.

If you require additional historical weather information, please visit Climate Data Online.

Date modified: